createdAt,value
2019-04-27T00:00:48.314Z,21.40
2019-04-27T00:01:48.469Z,21.46
2019-04-27T00:02:47.291Z,21.35
2019-04-27T00:03:47.282Z,21.36
2019-04-27T00:04:48.715Z,21.46
2019-04-27T00:05:47.261Z,21.50
2019-04-27T00:06:47.258Z,21.46
2019-04-27T00:07:47.239Z,21.48
2019-04-27T00:08:47.229Z,21.45
2019-04-27T00:09:50.251Z,21.46
2019-04-27T00:10:47.209Z,21.45
2019-04-27T00:11:47.195Z,21.50
2019-04-27T00:12:47.186Z,21.45
2019-04-27T00:13:47.174Z,21.46
2019-04-27T00:14:48.308Z,21.52
2019-04-27T00:15:48.163Z,21.69
2019-04-27T00:16:50.703Z,21.70
2019-04-27T00:17:49.442Z,21.76
2019-04-27T00:18:49.702Z,21.75
2019-04-27T00:19:48.111Z,21.83
2019-04-27T00:20:47.361Z,21.88
2019-04-27T00:21:47.091Z,21.96
2019-04-27T00:22:47.084Z,21.95
2019-04-27T00:23:47.081Z,22.04
2019-04-27T00:24:47.059Z,21.99
2019-04-27T00:25:47.836Z,22.00
2019-04-27T00:26:47.035Z,21.91
2019-04-27T00:27:47.056Z,21.89
2019-04-27T00:28:47.025Z,21.88
2019-04-27T00:29:47.019Z,21.92
2019-04-27T00:30:46.993Z,21.91
2019-04-27T00:31:46.982Z,21.93
2019-04-27T00:32:47.092Z,21.95
2019-04-27T00:33:46.976Z,21.88
2019-04-27T00:34:46.952Z,21.85
2019-04-27T00:35:46.941Z,21.80
2019-04-27T00:36:46.929Z,21.93
2019-04-27T00:37:46.920Z,21.88
2019-04-27T00:38:46.912Z,21.85
2019-04-27T00:39:46.906Z,21.91
2019-04-27T00:40:46.893Z,21.91
2019-04-27T00:41:46.877Z,21.92
2019-04-27T00:42:46.866Z,21.83
2019-04-27T00:43:46.865Z,21.77
2019-04-27T00:44:46.848Z,21.79
2019-04-27T00:45:46.834Z,21.80
2019-04-27T00:46:46.826Z,21.82
2019-04-27T00:47:56.488Z,21.85
2019-04-27T00:48:47.799Z,21.85
2019-04-27T00:49:46.791Z,21.91
2019-04-27T00:50:46.783Z,21.88
2019-04-27T00:51:46.769Z,21.95
2019-04-27T00:52:46.770Z,21.92
2019-04-27T00:53:46.748Z,21.89
2019-04-27T00:54:46.739Z,21.91
2019-04-27T00:55:46.724Z,21.88
2019-04-27T00:56:46.723Z,21.85
2019-04-27T00:57:46.713Z,21.89
2019-04-27T00:58:46.703Z,21.77
2019-04-27T00:59:46.687Z,21.75
2019-04-27T01:00:46.678Z,21.67
2019-04-27T01:01:46.662Z,21.61
2019-04-27T01:02:46.652Z,21.58
2019-04-27T01:03:46.643Z,21.57
2019-04-27T01:04:46.648Z,21.62
2019-04-27T01:05:46.620Z,21.45
2019-04-27T01:06:46.609Z,21.52
2019-04-27T01:07:46.599Z,21.60
2019-04-27T01:08:46.595Z,21.50
2019-04-27T01:09:46.576Z,21.48
2019-04-27T01:10:46.570Z,21.40
2019-04-27T01:11:46.553Z,21.40
2019-04-27T01:12:46.541Z,21.40
2019-04-27T01:13:46.534Z,21.50
2019-04-27T01:14:46.523Z,21.46
2019-04-27T01:15:46.519Z,21.46
2019-04-27T01:16:46.502Z,21.55
2019-04-27T01:17:46.488Z,21.58
2019-04-27T01:18:46.480Z,21.50
2019-04-27T01:19:46.473Z,21.52
2019-04-27T01:20:46.456Z,21.48
2019-04-27T01:21:46.448Z,21.52
2019-04-27T01:22:46.436Z,21.43
2019-04-27T01:23:46.428Z,21.48
2019-04-27T01:24:46.415Z,21.46
2019-04-27T01:25:46.410Z,21.33
2019-04-27T01:26:46.395Z,21.29
2019-04-27T01:27:46.386Z,21.21
2019-04-27T01:28:46.370Z,21.14
2019-04-27T01:29:46.360Z,21.17
2019-04-27T01:30:46.351Z,21.07
2019-04-27T01:31:46.348Z,21.07
2019-04-27T01:32:46.330Z,21.14
2019-04-27T01:33:46.332Z,21.12
2019-04-27T01:34:46.304Z,21.11
2019-04-27T01:35:46.298Z,21.12
2019-04-27T01:36:46.283Z,21.06
2019-04-27T01:37:46.282Z,20.92
2019-04-27T01:38:46.268Z,20.95
2019-04-27T01:39:46.252Z,20.80
2019-04-27T01:40:46.242Z,20.87
2019-04-27T01:41:46.227Z,20.82
2019-04-27T01:42:46.223Z,20.90
2019-04-27T01:43:46.209Z,20.72
2019-04-27T01:44:46.198Z,20.81
2019-04-27T01:45:46.185Z,20.80
2019-04-27T01:46:46.174Z,20.78
2019-04-27T01:47:46.163Z,20.74
2019-04-27T01:48:46.154Z,20.72
2019-04-27T01:49:46.140Z,20.72
2019-04-27T01:50:46.133Z,20.75
2019-04-27T01:51:46.120Z,20.74
2019-04-27T01:52:46.107Z,20.80
2019-04-27T01:53:46.098Z,20.70
2019-04-27T01:54:46.091Z,20.70
2019-04-27T01:55:46.072Z,20.78
2019-04-27T01:56:46.076Z,20.67
2019-04-27T01:57:46.052Z,20.70
2019-04-27T01:58:46.041Z,20.69
2019-04-27T01:59:46.031Z,20.69
2019-04-27T02:00:46.021Z,20.63
2019-04-27T02:01:46.013Z,20.65
2019-04-27T02:02:46.016Z,20.65
2019-04-27T02:03:45.991Z,20.70
2019-04-27T02:04:45.975Z,20.67
2019-04-27T02:05:45.966Z,20.65
2019-04-27T02:06:45.954Z,20.66
2019-04-27T02:07:45.944Z,20.66
2019-04-27T02:08:45.931Z,20.67
2019-04-27T02:09:45.919Z,20.74
2019-04-27T02:10:45.909Z,20.77
2019-04-27T02:11:45.904Z,20.74
2019-04-27T02:12:45.888Z,20.75
2019-04-27T02:13:45.882Z,20.78
2019-04-27T02:14:45.865Z,20.74
2019-04-27T02:15:45.855Z,20.74
2019-04-27T02:16:45.849Z,20.78
2019-04-27T02:17:45.840Z,20.63
2019-04-27T02:18:45.823Z,20.66
2019-04-27T02:19:45.819Z,20.63
2019-04-27T02:20:45.802Z,20.62
2019-04-27T02:21:45.788Z,20.62
2019-04-27T02:22:45.777Z,20.59
2019-04-27T02:23:45.776Z,20.55
2019-04-27T02:24:45.755Z,20.56
2019-04-27T02:25:45.754Z,20.50
2019-04-27T02:26:45.734Z,20.52
2019-04-27T02:27:45.723Z,20.51
2019-04-27T02:28:45.711Z,20.48
2019-04-27T02:29:45.704Z,20.36
2019-04-27T02:30:45.700Z,20.37
2019-04-27T02:31:45.694Z,20.44
2019-04-27T02:32:45.669Z,20.40
2019-04-27T02:33:45.667Z,20.47
2019-04-27T02:34:45.647Z,20.40
2019-04-27T02:35:45.637Z,20.28
2019-04-27T02:36:45.636Z,20.32
2019-04-27T02:37:45.615Z,20.19
2019-04-27T02:38:45.606Z,20.25
2019-04-27T02:39:45.593Z,20.34
2019-04-27T02:40:45.584Z,20.40
2019-04-27T02:41:45.571Z,20.44
2019-04-27T02:42:45.563Z,20.44
2019-04-27T02:43:45.554Z,20.52
2019-04-27T02:44:45.543Z,20.44
2019-04-27T02:45:45.526Z,20.58
2019-04-27T02:46:45.526Z,20.55
2019-04-27T02:47:45.520Z,20.60
2019-04-27T02:48:58.686Z,20.52
2019-04-27T02:49:46.481Z,20.50
2019-04-27T02:50:45.474Z,20.55
2019-04-27T02:51:45.460Z,20.52
2019-04-27T02:52:45.459Z,20.52
2019-04-27T02:53:45.441Z,20.52
2019-04-27T02:54:45.437Z,20.51
2019-04-27T02:55:45.415Z,20.51
2019-04-27T02:56:45.414Z,20.48
2019-04-27T02:57:45.406Z,20.52
2019-04-27T02:58:45.383Z,20.48
2019-04-27T02:59:45.382Z,20.55
2019-04-27T03:00:45.361Z,20.50
2019-04-27T03:01:46.809Z,20.50
2019-04-27T03:02:45.342Z,20.48
2019-04-27T03:03:45.333Z,20.41
2019-04-27T03:04:45.355Z,20.37
2019-04-27T03:05:45.309Z,20.48
2019-04-27T03:06:45.296Z,20.29
2019-04-27T03:07:45.284Z,20.22
2019-04-27T03:08:49.323Z,20.32
2019-04-27T03:09:46.264Z,20.28
2019-04-27T03:10:45.255Z,20.21
2019-04-27T03:11:45.253Z,20.24
2019-04-27T03:12:45.230Z,20.21
2019-04-27T03:13:45.217Z,20.18
2019-04-27T03:14:45.209Z,20.19
2019-04-27T03:15:45.205Z,20.14
2019-04-27T03:16:45.191Z,20.16
2019-04-27T03:17:45.200Z,20.16
2019-04-27T03:18:45.164Z,20.11
2019-04-27T03:19:45.153Z,20.04
2019-04-27T03:20:45.141Z,20.09
2019-04-27T03:21:45.153Z,20.09
2019-04-27T03:22:45.126Z,20.03
2019-04-27T03:23:45.106Z,20.07
2019-04-27T03:24:45.099Z,19.92
2019-04-27T03:25:45.086Z,19.88
2019-04-27T03:26:45.075Z,19.82
2019-04-27T03:27:45.064Z,19.85
2019-04-27T03:28:45.065Z,19.96
2019-04-27T03:29:45.062Z,19.85
2019-04-27T03:30:45.032Z,19.92
2019-04-27T03:31:47.655Z,19.82
2019-04-27T03:32:46.018Z,19.94
2019-04-27T03:33:45.005Z,19.89
2019-04-27T03:34:44.991Z,19.91
2019-04-27T03:35:44.976Z,19.92
2019-04-27T03:36:44.968Z,19.99
2019-04-27T03:37:44.962Z,20.00
2019-04-27T03:38:44.948Z,20.00
2019-04-27T03:39:44.939Z,20.04
2019-04-27T03:40:44.931Z,20.06
2019-04-27T03:41:44.910Z,20.04
2019-04-27T03:42:44.901Z,20.09
2019-04-27T03:43:44.891Z,20.07
2019-04-27T03:44:44.885Z,20.04
2019-04-27T03:45:44.869Z,20.09
2019-04-27T03:46:44.878Z,20.07
2019-04-27T03:47:44.846Z,20.06
2019-04-27T03:48:44.838Z,20.07
2019-04-27T03:49:44.824Z,20.09
2019-04-27T03:50:44.815Z,20.21
2019-04-27T03:51:44.803Z,20.14
2019-04-27T03:52:44.796Z,20.21
2019-04-27T03:53:44.779Z,20.19
2019-04-27T03:54:44.765Z,20.16
2019-04-27T03:55:44.757Z,20.16
2019-04-27T03:56:44.761Z,20.09
2019-04-27T03:57:44.738Z,20.10
2019-04-27T03:58:44.725Z,20.09
2019-04-27T03:59:44.718Z,20.09
2019-04-27T04:00:44.704Z,20.06
2019-04-27T04:01:44.693Z,20.04
2019-04-27T04:02:44.685Z,20.04
2019-04-27T04:03:44.671Z,20.04
2019-04-27T04:04:44.659Z,19.95
2019-04-27T04:05:44.652Z,20.07
2019-04-27T04:06:44.662Z,20.03
2019-04-27T04:07:44.633Z,19.91
2019-04-27T04:08:44.615Z,19.92
2019-04-27T04:09:44.614Z,19.94
2019-04-27T04:10:44.598Z,19.94
2019-04-27T04:11:44.584Z,19.99
2019-04-27T04:12:44.575Z,20.04
2019-04-27T04:13:44.568Z,20.03
2019-04-27T04:14:44.551Z,19.89
2019-04-27T04:15:44.543Z,19.92
2019-04-27T04:16:44.531Z,19.95
2019-04-27T04:17:44.519Z,19.99
2019-04-27T04:18:44.513Z,19.95
2019-04-27T04:19:54.376Z,19.92
2019-04-27T04:20:45.485Z,19.99
2019-04-27T04:21:44.475Z,20.02
2019-04-27T04:22:44.467Z,19.94
2019-04-27T04:23:44.450Z,20.00
2019-04-27T04:24:44.446Z,20.02
2019-04-27T04:25:44.431Z,20.07
2019-04-27T04:26:44.420Z,20.03
2019-04-27T04:27:44.412Z,20.03
2019-04-27T04:28:44.401Z,20.02
2019-04-27T04:29:44.386Z,20.09
2019-04-27T04:30:44.378Z,20.07
2019-04-27T04:31:44.366Z,19.96
2019-04-27T04:32:44.361Z,20.00
2019-04-27T04:33:44.341Z,19.94
2019-04-27T04:34:44.329Z,19.86
2019-04-27T04:35:44.318Z,19.88
2019-04-27T04:36:44.357Z,19.81
2019-04-27T04:37:44.296Z,19.74
2019-04-27T04:38:44.298Z,19.74
2019-04-27T04:39:44.278Z,19.64
2019-04-27T04:40:44.266Z,19.64
2019-04-27T04:41:44.252Z,19.66
2019-04-27T04:42:44.250Z,19.64
2019-04-27T04:43:44.232Z,19.52
2019-04-27T04:44:44.238Z,19.51
2019-04-27T04:45:44.216Z,19.51
2019-04-27T04:46:44.201Z,19.48
2019-04-27T04:47:44.191Z,19.51
2019-04-27T04:48:44.200Z,19.52
2019-04-27T04:49:44.176Z,19.44
2019-04-27T04:50:44.163Z,19.41
2019-04-27T04:51:44.146Z,19.37
2019-04-27T04:52:44.138Z,19.37
2019-04-27T04:53:44.123Z,19.36
2019-04-27T04:54:44.116Z,19.41
2019-04-27T04:55:44.105Z,19.41
2019-04-27T04:56:44.091Z,19.47
2019-04-27T04:57:44.080Z,19.45
2019-04-27T04:58:44.068Z,19.40
2019-04-27T04:59:44.062Z,19.45
2019-04-27T05:00:44.045Z,19.47
2019-04-27T05:01:44.042Z,19.48
2019-04-27T05:02:44.024Z,19.58
2019-04-27T05:03:44.011Z,19.67
2019-04-27T05:04:44.000Z,19.69
2019-04-27T05:05:44.006Z,19.66
2019-04-27T05:06:43.985Z,19.67
2019-04-27T05:07:43.977Z,19.70
2019-04-27T05:08:43.961Z,19.66
2019-04-27T05:09:43.949Z,19.63
2019-04-27T05:10:43.934Z,19.66
2019-04-27T05:11:43.931Z,19.63
2019-04-27T05:12:43.920Z,19.77
2019-04-27T05:13:43.921Z,19.74
2019-04-27T05:14:43.892Z,19.79
2019-04-27T05:15:43.880Z,19.82
2019-04-27T05:16:43.867Z,19.85
2019-04-27T05:17:43.871Z,19.92
2019-04-27T05:18:43.857Z,19.92
2019-04-27T05:19:43.836Z,19.95
2019-04-27T05:20:43.832Z,19.84
2019-04-27T05:21:43.816Z,19.86
2019-04-27T05:22:43.804Z,19.76
2019-04-27T05:23:43.791Z,19.84
2019-04-27T05:24:43.791Z,19.89
2019-04-27T05:25:43.769Z,19.91
2019-04-27T05:26:43.760Z,19.81
2019-04-27T05:27:43.747Z,19.74
2019-04-27T05:28:43.755Z,19.69
2019-04-27T05:29:43.727Z,19.74
2019-04-27T05:30:43.721Z,19.67
2019-04-27T05:31:43.705Z,19.59
2019-04-27T05:32:43.695Z,19.55
2019-04-27T05:33:43.683Z,19.45
2019-04-27T05:34:43.679Z,19.34
2019-04-27T05:35:43.661Z,19.29
2019-04-27T05:36:48.699Z,19.29
2019-04-27T05:37:44.638Z,19.22
2019-04-27T05:38:45.761Z,19.18
2019-04-27T05:39:43.619Z,19.15
2019-04-27T05:40:43.616Z,19.14
2019-04-27T05:41:43.607Z,19.04
2019-04-27T05:42:43.595Z,19.08
2019-04-27T05:43:43.575Z,19.09
2019-04-27T05:44:45.579Z,19.11
2019-04-27T05:45:43.553Z,18.95
2019-04-27T05:46:43.542Z,19.07
2019-04-27T05:47:47.811Z,19.07
2019-04-27T05:48:44.517Z,19.04
2019-04-27T05:49:44.627Z,19.02
2019-04-27T05:50:45.906Z,19.11
2019-04-27T05:51:43.502Z,19.08
2019-04-27T05:52:43.504Z,19.07
2019-04-27T05:53:43.466Z,19.15
2019-04-27T05:54:43.456Z,19.15
2019-04-27T05:55:43.443Z,19.18
2019-04-27T05:56:43.434Z,19.31
2019-04-27T05:57:43.424Z,19.29
2019-04-27T05:58:43.413Z,19.29
2019-04-27T05:59:43.412Z,19.30
2019-04-27T06:00:43.393Z,19.34
2019-04-27T06:01:43.382Z,19.51
2019-04-27T06:02:43.371Z,19.59
2019-04-27T06:03:43.362Z,19.56
2019-04-27T06:04:43.350Z,19.59
2019-04-27T06:05:43.343Z,19.70
2019-04-27T06:06:43.331Z,19.52
2019-04-27T06:07:43.317Z,19.69
2019-04-27T06:08:43.304Z,19.52
2019-04-27T06:09:43.304Z,19.52
2019-04-27T06:10:43.285Z,19.54
2019-04-27T06:11:43.277Z,19.48
2019-04-27T06:12:43.263Z,19.48
2019-04-27T06:13:43.254Z,19.51
2019-04-27T06:14:43.255Z,19.62
2019-04-27T06:15:43.245Z,19.66
2019-04-27T06:16:43.224Z,19.63
2019-04-27T06:17:43.226Z,19.79
2019-04-27T06:18:43.206Z,19.69
2019-04-27T06:19:43.933Z,19.70
2019-04-27T06:20:53.363Z,19.81
2019-04-27T06:21:44.171Z,19.70
2019-04-27T06:22:43.158Z,19.74
2019-04-27T06:23:43.156Z,19.71
2019-04-27T06:24:43.141Z,19.77
2019-04-27T06:25:43.136Z,19.81
2019-04-27T06:26:43.119Z,19.85
2019-04-27T06:27:43.112Z,19.86
2019-04-27T06:28:43.096Z,19.94
2019-04-27T06:29:43.156Z,20.03
2019-04-27T06:30:43.081Z,20.00
2019-04-27T06:31:43.064Z,20.03
2019-04-27T06:32:43.051Z,20.06
2019-04-27T06:33:43.056Z,19.94
2019-04-27T06:34:43.035Z,19.92
2019-04-27T06:35:43.030Z,19.85
2019-04-27T06:36:43.020Z,19.85
2019-04-27T06:37:43.019Z,19.91
2019-04-27T06:38:42.988Z,19.84
2019-04-27T06:39:42.989Z,19.88
2019-04-27T06:40:42.977Z,19.77
2019-04-27T06:41:42.966Z,19.81
2019-04-27T06:42:42.951Z,19.74
2019-04-27T06:43:43.014Z,19.82
2019-04-27T06:44:42.925Z,19.70
2019-04-27T06:45:42.914Z,19.76
2019-04-27T06:46:43.515Z,19.76
2019-04-27T06:47:42.913Z,19.85
2019-04-27T06:48:42.900Z,19.74
2019-04-27T06:49:42.871Z,19.77
2019-04-27T06:50:42.864Z,19.76
2019-04-27T06:51:42.850Z,19.74
2019-04-27T06:52:42.841Z,19.70
2019-04-27T06:53:42.842Z,19.67
2019-04-27T06:54:42.820Z,19.52
2019-04-27T06:55:42.809Z,19.54
2019-04-27T06:56:42.803Z,19.47
2019-04-27T06:57:42.790Z,19.45
2019-04-27T06:58:42.781Z,19.34
2019-04-27T06:59:42.768Z,19.27
2019-04-27T07:00:42.785Z,19.16
2019-04-27T07:01:42.913Z,19.22
2019-04-27T07:02:42.731Z,19.19
2019-04-27T07:03:42.728Z,19.12
2019-04-27T07:04:42.715Z,19.02
2019-04-27T07:05:42.706Z,19.08
2019-04-27T07:06:53.198Z,19.15
2019-04-27T07:07:43.680Z,19.18
2019-04-27T07:08:42.671Z,19.16
2019-04-27T07:09:42.683Z,19.30
2019-04-27T07:10:42.661Z,19.30
2019-04-27T07:11:42.649Z,19.45
2019-04-27T07:12:42.631Z,19.39
2019-04-27T07:13:42.618Z,19.51
2019-04-27T07:14:52.420Z,19.52
2019-04-27T07:15:43.604Z,19.71
2019-04-27T07:16:42.593Z,19.82
2019-04-27T07:17:42.609Z,19.76
2019-04-27T07:18:42.566Z,19.74
2019-04-27T07:19:42.558Z,19.86
2019-04-27T07:20:42.553Z,19.88
2019-04-27T07:21:42.535Z,19.81
2019-04-27T07:22:42.530Z,19.89
2019-04-27T07:23:42.517Z,19.79
2019-04-27T07:24:42.516Z,19.91
2019-04-27T07:25:42.490Z,19.81
2019-04-27T07:26:42.492Z,19.81
2019-04-27T07:27:42.478Z,19.76
2019-04-27T07:28:42.470Z,19.69
2019-04-27T07:29:44.583Z,19.62
2019-04-27T07:30:42.438Z,19.47
2019-04-27T07:31:42.427Z,19.44
2019-04-27T07:32:42.431Z,19.31
2019-04-27T07:33:42.417Z,19.27
2019-04-27T07:34:42.409Z,19.29
2019-04-27T07:35:42.387Z,19.15
2019-04-27T07:36:42.375Z,19.12
2019-04-27T07:37:42.364Z,19.19
2019-04-27T07:38:42.391Z,19.14
2019-04-27T07:39:42.354Z,19.26
2019-04-27T07:40:42.348Z,19.15
2019-04-27T07:41:42.464Z,19.19
2019-04-27T07:42:42.327Z,19.26
2019-04-27T07:43:42.301Z,19.18
2019-04-27T07:44:42.291Z,19.21
2019-04-27T07:45:42.281Z,19.18
2019-04-27T07:46:42.298Z,19.21
2019-04-27T07:47:42.259Z,19.14
2019-04-27T07:48:42.246Z,19.16
2019-04-27T07:49:42.242Z,19.14
2019-04-27T07:50:42.228Z,19.27
2019-04-27T07:51:42.231Z,19.34
2019-04-27T07:52:42.231Z,19.40
2019-04-27T07:53:42.194Z,19.37
2019-04-27T07:54:42.187Z,19.52
2019-04-27T07:55:42.182Z,19.55
2019-04-27T07:56:42.165Z,19.63
2019-04-27T07:57:42.160Z,19.52
2019-04-27T07:58:42.144Z,19.59
2019-04-27T07:59:42.253Z,19.70
2019-04-27T08:00:42.123Z,19.79
2019-04-27T08:01:42.110Z,19.74
2019-04-27T08:02:42.102Z,19.74
2019-04-27T08:03:42.102Z,19.67
2019-04-27T08:04:42.087Z,19.69
2019-04-27T08:05:42.065Z,19.71
2019-04-27T08:06:42.058Z,19.71
2019-04-27T08:07:42.046Z,19.66
2019-04-27T08:08:42.038Z,19.69
2019-04-27T08:09:42.055Z,19.58
2019-04-27T08:10:42.016Z,19.58
2019-04-27T08:11:42.007Z,19.69
2019-04-27T08:12:41.997Z,19.59
2019-04-27T08:13:41.982Z,19.67
2019-04-27T08:14:41.977Z,19.69
2019-04-27T08:15:41.970Z,19.67
2019-04-27T08:16:41.951Z,19.66
2019-04-27T08:17:42.895Z,19.70
2019-04-27T08:18:42.558Z,19.69
2019-04-27T08:19:41.951Z,19.66
2019-04-27T08:20:41.917Z,19.82
2019-04-27T08:21:44.445Z,19.77
2019-04-27T08:22:41.887Z,19.70
2019-04-27T08:23:42.025Z,19.82
2019-04-27T08:24:41.877Z,19.76
2019-04-27T08:25:41.863Z,19.69
2019-04-27T08:26:41.846Z,19.86
2019-04-27T08:27:41.838Z,19.84
2019-04-27T08:28:41.825Z,19.79
2019-04-27T08:29:41.813Z,19.82
2019-04-27T08:30:41.805Z,19.74
2019-04-27T08:31:41.806Z,19.86
2019-04-27T08:32:41.802Z,19.74
2019-04-27T08:33:41.776Z,19.70
2019-04-27T08:34:41.762Z,19.82
2019-04-27T08:35:41.822Z,19.82
2019-04-27T08:36:41.740Z,19.71
2019-04-27T08:37:41.733Z,19.77
2019-04-27T08:38:41.719Z,19.67
2019-04-27T08:39:41.715Z,19.69
2019-04-27T08:40:41.698Z,19.69
2019-04-27T08:41:41.693Z,19.71
2019-04-27T08:42:41.683Z,19.76
2019-04-27T08:43:41.681Z,19.82
2019-04-27T08:44:41.657Z,19.94
2019-04-27T08:45:41.648Z,19.91
2019-04-27T08:46:41.634Z,19.94
2019-04-27T08:47:41.854Z,19.92
2019-04-27T08:48:41.619Z,19.91
2019-04-27T08:49:41.620Z,19.96
2019-04-27T08:50:42.145Z,19.89
2019-04-27T08:51:41.700Z,19.94
2019-04-27T08:52:41.992Z,19.94
2019-04-27T08:53:41.558Z,19.89
2019-04-27T08:54:41.553Z,19.92
2019-04-27T08:55:41.536Z,19.91
2019-04-27T08:56:41.534Z,19.99
2019-04-27T08:57:41.515Z,19.99
2019-04-27T08:58:41.520Z,19.96
2019-04-27T08:59:41.497Z,19.92
2019-04-27T09:00:41.494Z,19.95
2019-04-27T09:01:41.477Z,20.07
2019-04-27T09:02:46.740Z,20.14
2019-04-27T09:03:42.491Z,20.11
2019-04-27T09:04:41.450Z,20.13
2019-04-27T09:05:41.440Z,20.19
2019-04-27T09:06:41.427Z,20.16
2019-04-27T09:07:41.409Z,20.19
2019-04-27T09:08:41.509Z,20.21
2019-04-27T09:09:41.392Z,20.19
2019-04-27T09:10:41.381Z,20.22
2019-04-27T09:11:41.378Z,20.19
2019-04-27T09:12:41.526Z,20.25
2019-04-27T09:13:41.423Z,20.28
2019-04-27T09:14:41.337Z,20.37
2019-04-27T09:15:41.327Z,20.36
2019-04-27T09:16:41.320Z,20.48
2019-04-27T09:17:41.378Z,20.50
2019-04-27T09:18:41.295Z,20.66
2019-04-27T09:19:41.288Z,20.69
2019-04-27T09:20:41.275Z,20.75
2019-04-27T09:21:41.265Z,20.85
2019-04-27T09:22:41.254Z,20.93
2019-04-27T09:23:41.247Z,20.99
2019-04-27T09:24:41.233Z,21.12
2019-04-27T09:25:41.220Z,21.12
2019-04-27T09:26:41.211Z,21.15
2019-04-27T09:27:41.215Z,21.14
2019-04-27T09:28:41.191Z,21.24
2019-04-27T09:29:41.192Z,21.22
2019-04-27T09:30:41.168Z,21.27
2019-04-27T09:31:41.162Z,21.27
2019-04-27T09:32:41.148Z,21.33
2019-04-27T09:33:41.132Z,21.25
2019-04-27T09:34:41.124Z,21.30
2019-04-27T09:35:41.112Z,21.33
2019-04-27T09:36:41.284Z,21.36
2019-04-27T09:37:41.093Z,21.33
2019-04-27T09:38:41.083Z,21.40
2019-04-27T09:39:41.072Z,21.33
2019-04-27T09:40:41.076Z,21.30
2019-04-27T09:41:41.048Z,21.37
2019-04-27T09:42:41.052Z,21.36
2019-04-27T09:43:41.029Z,21.33
2019-04-27T09:44:41.024Z,21.35
2019-04-27T09:45:41.011Z,21.35
2019-04-27T09:46:41.001Z,21.42
2019-04-27T09:47:40.982Z,21.32
2019-04-27T09:48:40.979Z,21.36
2019-04-27T09:49:40.967Z,21.35
2019-04-27T09:50:40.981Z,21.43
2019-04-27T09:51:40.954Z,21.42
2019-04-27T09:52:40.930Z,21.46
2019-04-27T09:53:40.917Z,21.50
2019-04-27T09:54:40.918Z,21.48
2019-04-27T09:55:40.902Z,21.52
2019-04-27T09:56:40.989Z,21.48
2019-04-27T09:57:40.907Z,21.48
2019-04-27T09:58:40.871Z,21.45
2019-04-27T09:59:40.868Z,21.46
2019-04-27T10:00:40.845Z,21.40
2019-04-27T10:01:40.840Z,21.51
2019-04-27T10:02:40.822Z,21.33
2019-04-27T10:03:40.817Z,21.30
2019-04-27T10:04:40.797Z,21.22
2019-04-27T10:05:40.793Z,21.14
2019-04-27T10:06:40.781Z,21.12
2019-04-27T10:07:40.780Z,21.09
2019-04-27T10:08:40.759Z,21.00
2019-04-27T10:09:40.740Z,20.97
2019-04-27T10:10:40.731Z,20.90
2019-04-27T10:11:40.727Z,20.95
2019-04-27T10:12:40.719Z,21.00
2019-04-27T10:13:40.705Z,21.05
2019-04-27T10:14:40.696Z,21.00
2019-04-27T10:15:40.676Z,21.11
2019-04-27T10:16:40.666Z,21.14
2019-04-27T10:17:40.654Z,21.14
2019-04-27T10:18:40.655Z,21.21
2019-04-27T10:19:40.698Z,21.20
2019-04-27T10:20:41.140Z,21.24
2019-04-27T10:21:40.624Z,21.25
2019-04-27T10:22:43.463Z,21.24
2019-04-27T10:23:40.592Z,21.29
2019-04-27T10:24:40.589Z,21.33
2019-04-27T10:25:40.637Z,21.32
2019-04-27T10:26:40.555Z,21.25
2019-04-27T10:27:40.545Z,21.27
2019-04-27T10:28:40.538Z,21.30
2019-04-27T10:29:40.531Z,21.32
2019-04-27T10:30:40.516Z,21.33
2019-04-27T10:31:40.506Z,21.24
2019-04-27T10:32:42.771Z,21.35
2019-04-27T10:33:40.480Z,21.43
2019-04-27T10:34:40.471Z,21.50
2019-04-27T10:35:40.462Z,21.42
2019-04-27T10:36:40.453Z,21.50
2019-04-27T10:37:41.443Z,21.50
2019-04-27T10:38:40.424Z,21.48
2019-04-27T10:39:40.416Z,21.37
2019-04-27T10:40:40.413Z,21.46
2019-04-27T10:41:40.395Z,21.51
2019-04-27T10:42:40.399Z,21.40
2019-04-27T10:43:40.432Z,21.29
2019-04-27T10:44:40.366Z,21.40
2019-04-27T10:45:40.355Z,21.40
2019-04-27T10:46:40.371Z,21.35
2019-04-27T10:47:40.335Z,21.33
2019-04-27T10:48:40.330Z,21.27
2019-04-27T10:49:40.306Z,21.30
2019-04-27T10:50:40.293Z,21.30
2019-04-27T10:51:40.283Z,21.32
2019-04-27T10:52:52.638Z,21.33
2019-04-27T10:53:41.261Z,21.39
2019-04-27T10:54:40.351Z,21.35
2019-04-27T10:55:40.283Z,21.33
2019-04-27T10:56:40.252Z,21.30
2019-04-27T10:57:40.228Z,21.33
2019-04-27T10:58:40.213Z,21.39
2019-04-27T10:59:40.215Z,21.36
2019-04-27T11:00:40.188Z,21.35
2019-04-27T11:01:40.174Z,21.36
2019-04-27T11:02:40.166Z,21.32
2019-04-27T11:03:40.170Z,21.35
2019-04-27T11:04:40.154Z,21.25
2019-04-27T11:05:40.159Z,21.33
2019-04-27T11:06:40.119Z,21.24
2019-04-27T11:07:40.107Z,21.27
2019-04-27T11:08:40.096Z,21.24
2019-04-27T11:09:40.108Z,21.29
2019-04-27T11:10:40.089Z,21.27
2019-04-27T11:11:40.061Z,21.29
2019-04-27T11:12:40.055Z,21.27
2019-04-27T11:13:40.043Z,21.21
2019-04-27T11:14:40.037Z,21.17
2019-04-27T11:15:40.025Z,21.21
2019-04-27T11:16:40.018Z,21.20
2019-04-27T11:17:39.996Z,21.21
2019-04-27T11:18:40.003Z,21.25
2019-04-27T11:19:39.992Z,21.20
2019-04-27T11:20:39.980Z,21.22
2019-04-27T11:21:39.959Z,21.32
2019-04-27T11:22:39.953Z,21.27
2019-04-27T11:23:39.937Z,21.33
2019-04-27T11:24:39.920Z,21.27
2019-04-27T11:25:39.914Z,21.33
2019-04-27T11:26:39.899Z,21.29
2019-04-27T11:27:39.888Z,21.24
2019-04-27T11:28:42.566Z,21.24
2019-04-27T11:29:39.871Z,21.29
2019-04-27T11:30:39.852Z,21.25
2019-04-27T11:31:39.851Z,21.36
2019-04-27T11:32:39.837Z,21.39
2019-04-27T11:33:39.827Z,21.36
2019-04-27T11:34:39.822Z,21.33
2019-04-27T11:35:39.798Z,21.39
2019-04-27T11:36:39.786Z,21.33
2019-04-27T11:37:39.777Z,21.40
2019-04-27T11:38:39.774Z,21.51
2019-04-27T11:39:39.779Z,21.50
2019-04-27T11:40:39.756Z,21.46
2019-04-27T11:41:39.735Z,21.46
2019-04-27T11:42:39.723Z,21.45
2019-04-27T11:43:39.711Z,21.45
2019-04-27T11:44:39.705Z,21.48
2019-04-27T11:45:39.691Z,21.48
2019-04-27T11:46:40.485Z,21.50
2019-04-27T11:47:39.668Z,21.57
2019-04-27T11:48:39.669Z,21.57
2019-04-27T11:49:39.649Z,21.61
2019-04-27T11:50:39.641Z,21.73
2019-04-27T11:51:39.623Z,21.70
2019-04-27T11:52:39.614Z,21.70
2019-04-27T11:53:39.603Z,21.69
2019-04-27T11:54:39.592Z,21.64
2019-04-27T11:55:39.590Z,21.70
2019-04-27T11:56:39.569Z,21.60
2019-04-27T11:57:39.567Z,21.73
2019-04-27T11:58:39.544Z,21.61
2019-04-27T11:59:39.540Z,21.60
2019-04-27T12:00:39.524Z,21.69
2019-04-27T12:01:39.528Z,21.55
2019-04-27T12:02:39.504Z,21.70
2019-04-27T12:03:39.503Z,21.67
2019-04-27T12:04:39.487Z,21.67
2019-04-27T12:05:39.482Z,21.67
2019-04-27T12:06:39.465Z,21.72
2019-04-27T12:07:39.625Z,21.62
2019-04-27T12:08:39.442Z,21.70
2019-04-27T12:09:39.442Z,21.76
2019-04-27T12:10:39.414Z,21.79
2019-04-27T12:11:39.405Z,21.80
2019-04-27T12:12:39.400Z,21.92
2019-04-27T12:13:39.391Z,21.85
2019-04-27T12:14:39.377Z,21.79
2019-04-27T12:15:39.367Z,21.85
2019-04-27T12:16:39.369Z,21.85
2019-04-27T12:17:39.346Z,21.83
2019-04-27T12:18:39.344Z,21.88
2019-04-27T12:19:39.316Z,21.85
2019-04-27T12:20:39.312Z,21.80
2019-04-27T12:21:39.299Z,21.83
2019-04-27T12:22:39.285Z,21.82
2019-04-27T12:23:41.220Z,21.91
2019-04-27T12:24:39.275Z,21.82
2019-04-27T12:25:39.251Z,21.91
2019-04-27T12:26:39.249Z,21.77
2019-04-27T12:27:39.229Z,21.88
2019-04-27T12:28:39.224Z,21.99
2019-04-27T12:29:39.212Z,22.02
2019-04-27T12:30:39.198Z,21.99
2019-04-27T12:31:39.190Z,21.96
2019-04-27T12:32:39.183Z,22.06
2019-04-27T12:33:39.178Z,22.07
2019-04-27T12:34:39.154Z,22.15
2019-04-27T12:35:39.147Z,22.13
2019-04-27T12:36:39.132Z,22.23
2019-04-27T12:37:39.122Z,22.28
2019-04-27T12:38:39.121Z,22.39
2019-04-27T12:39:39.099Z,22.30
2019-04-27T12:40:39.096Z,22.33
2019-04-27T12:41:39.079Z,22.30
2019-04-27T12:42:39.066Z,22.28
2019-04-27T12:43:39.055Z,22.26
2019-04-27T12:44:42.211Z,22.32
2019-04-27T12:45:42.000Z,22.30
2019-04-27T12:46:39.024Z,22.38
2019-04-27T12:47:39.012Z,22.36
2019-04-27T12:48:39.003Z,22.41
2019-04-27T12:49:38.991Z,22.33
2019-04-27T12:50:38.985Z,22.43
2019-04-27T12:51:38.977Z,22.32
2019-04-27T12:52:38.964Z,22.23